Time;durP1;ratioP1;P1;durP2;ratioP2;P2;SDS_P1;SDS_P2;PMS_P1;PMS_P2;Temp;Humidity;BMP_temperature;BMP_pressure;BME280_temperature;BME280_humidity;BME280_pressure;Samples;Min_cycle;Max_cycle;Signal;HPM_P1;HPM_P2
2023/04/12 00:02:02;;;;;;;11.60;6.50;;;;;;;12.17;59.94;99706.20;105548;1259;66983;-53
2023/04/12 00:04:33;;;;;;;14.70;6.80;;;;;;;12.12;60.12;99705.91;105110;1258;59736;-54
2023/04/12 00:07:02;;;;;;;11.10;7.90;;;;;;;12.08;60.31;99700.84;105076;1259;59564;-52
2023/04/12 00:09:31;;;;;;;12.90;9.00;;;;;;;12.04;60.36;99695.98;105125;1262;64808;-53
2023/04/12 00:12:00;;;;;;;14.40;9.30;;;;;;;11.99;60.49;99697.67;105090;1261;63048;-53
2023/04/12 00:14:29;;;;;;;14.70;8.60;;;;;;;11.94;60.79;99699.04;105385;1261;65068;-53
2023/04/12 00:17:00;;;;;;;12.40;7.70;;;;;;;11.96;60.96;99694.52;105612;1259;59754;-54
2023/04/12 00:19:29;;;;;;;13.90;8.60;;;;;;;11.98;60.87;99693.41;105169;1259;60820;-54
2023/04/12 00:22:03;;;;;;;12.30;8.60;;;;;;;11.96;61.04;99694.08;104991;1262;65528;-53
2023/04/12 00:24:32;;;;;;;12.90;9.80;;;;;;;11.94;61.28;99690.94;105296;1259;62595;-54
2023/04/12 00:27:01;;;;;;;14.40;9.70;;;;;;;11.93;61.62;99688.62;105357;1260;67174;-54
2023/04/12 00:29:35;;;;;;;12.90;9.00;;;;;;;11.91;61.73;99688.82;105123;1258;59649;-54
2023/04/12 00:32:04;;;;;;;13.20;10.30;;;;;;;11.86;61.93;99685.85;105498;1259;59667;-54
2023/04/12 00:34:33;;;;;;;14.40;9.70;;;;;;;11.82;62.17;99687.02;105216;1261;65570;-53
2023/04/12 00:37:01;;;;;;;12.10;9.30;;;;;;;11.84;62.22;99680.88;104977;1259;62256;-53
2023/04/12 00:39:30;;;;;;;13.10;9.90;;;;;;;11.88;62.27;99679.23;105096;1261;64893;-52
2023/04/12 00:42:03;;;;;;;16.90;10.80;;;;;;;11.90;62.62;99675.19;105164;1259;59761;-52
2023/04/12 00:44:32;;;;;;;12.80;10.30;;;;;;;11.88;62.56;99674.29;105252;1259;60573;-52
2023/04/12 00:47:02;;;;;;;15.40;10.90;;;;;;;11.82;62.64;99674.30;105267;1259;64418;-52
2023/04/12 00:49:31;;;;;;;15.50;10.70;;;;;;;11.78;62.98;99667.39;105139;1259;62594;-52
2023/04/12 00:52:09;;;;;;;14.50;10.60;;;;;;;11.74;63.13;99664.23;105134;1265;65236;-56
2023/04/12 00:54:41;;;;;;;16.20;10.10;;;;;;;11.67;63.13;99663.77;105436;1259;64279;-52
2023/04/12 00:57:12;;;;;;;13.30;10.50;;;;;;;11.70;63.22;99661.95;105589;1258;59604;-53
2023/04/12 00:59:40;;;;;;;14.10;9.90;;;;;;;11.77;63.40;99659.75;105132;1262;65425;-53
2023/04/12 01:02:08;;;;;;;13.40;10.10;;;;;;;11.78;63.47;99657.16;105217;1260;62617;-53
2023/04/12 01:04:38;;;;;;;15.60;10.60;;;;;;;11.76;63.59;99656.53;105496;1260;64967;-52
2023/04/12 01:07:20;;;;;;;14.60;10.80;;;;;;;11.74;63.78;99655.27;105279;1259;59678;-53
2023/04/12 01:10:01;;;;;;;12.70;9.80;;;;;;;11.70;63.70;99654.60;105142;1258;59712;-52
2023/04/12 01:13:08;;;;;;;16.00;11.40;;;;;;;11.63;63.94;99650.86;105163;1259;65126;-52
2023/04/12 01:15:40;;;;;;;14.00;10.10;;;;;;;11.66;64.09;99647.23;105156;1262;70189;-53
2023/04/12 01:18:12;;;;;;;14.10;10.40;;;;;;;11.68;64.02;99643.20;105165;1258;65062;-52
2023/04/12 01:20:54;;;;;;;18.60;11.40;;;;;;;11.65;64.13;99637.29;104983;1259;59734;-52
2023/04/12 01:23:38;;;;;;;15.90;10.30;;;;;;;11.63;64.38;99634.88;105096;1258;60121;-51
2023/04/12 01:26:20;;;;;;;15.60;11.20;;;;;;;11.58;64.42;99634.08;105158;1262;65385;-52
2023/04/12 01:28:52;;;;;;;16.50;12.00;;;;;;;11.52;64.36;99626.80;106025;1260;62719;-52
2023/04/12 01:31:24;;;;;;;13.30;10.20;;;;;;;11.43;64.56;99619.90;105034;1260;65818;-52
2023/04/12 01:34:00;;;;;;;13.90;9.40;;;;;;;11.42;64.68;99617.36;104859;1260;60560;-53
2023/04/12 01:36:29;;;;;;;15.90;10.50;;;;;;;11.43;64.77;99613.59;105345;1259;59715;-54
2023/04/12 01:38:57;;;;;;;16.30;10.70;;;;;;;11.42;65.02;99609.36;105198;1259;64207;-51
2023/04/12 01:41:26;;;;;;;14.90;10.40;;;;;;;11.41;65.18;99605.70;104877;1259;62694;-52
2023/04/12 01:43:54;;;;;;;17.80;11.60;;;;;;;11.39;65.26;99602.19;105109;1260;65021;-52
2023/04/12 01:46:24;;;;;;;15.20;11.30;;;;;;;11.35;65.30;99603.30;104908;1260;60491;-51
2023/04/12 01:48:53;;;;;;;17.50;11.00;;;;;;;11.29;65.38;99598.61;104869;1263;60542;-53
2023/04/12 01:51:37;;;;;;;18.10;10.00;;;;;;;11.31;65.37;99597.02;105190;1259;66282;-53
2023/04/12 01:54:10;;;;;;;15.70;10.70;;;;;;;11.31;65.51;99591.39;105139;1259;62614;-51
2023/04/12 01:56:45;;;;;;;16.20;10.10;;;;;;;11.27;65.79;99586.71;105416;1261;64902;-51
2023/04/12 01:59:14;;;;;;;13.40;9.90;;;;;;;11.24;65.87;99585.52;105118;1262;60538;-52
2023/04/12 02:01:43;;;;;;;14.20;10.50;;;;;;;11.20;65.91;99583.50;105249;1259;60496;-53
2023/04/12 02:04:11;;;;;;;14.50;9.80;;;;;;;11.14;66.02;99580.56;105168;1259;65204;-53
2023/04/12 02:06:39;;;;;;;13.50;9.90;;;;;;;11.15;66.17;99577.42;104867;1260;71261;-52
2023/04/12 02:09:15;;;;;;;17.10;10.10;;;;;;;11.19;66.38;99570.95;104841;1259;65073;-51
2023/04/12 02:11:47;;;;;;;15.40;11.10;;;;;;;11.19;66.45;99566.06;105300;1259;60661;-51
2023/04/12 02:14:15;;;;;;;17.30;10.80;;;;;;;11.17;66.61;99567.09;105280;1262;60455;-50
2023/04/12 02:16:49;;;;;;;14.60;10.60;;;;;;;11.16;66.75;99565.64;105358;1259;66273;-53
2023/04/12 02:19:18;;;;;;;12.00;9.40;;;;;;;11.13;66.75;99563.63;105146;1262;62744;-50
2023/04/12 02:21:46;;;;;;;14.90;9.50;;;;;;;11.13;66.66;99561.50;105327;1259;64746;-50
2023/04/12 02:24:16;;;;;;;12.30;9.50;;;;;;;11.16;66.81;99561.25;105107;1259;60487;-51
2023/04/12 02:26:48;;;;;;;15.30;9.60;;;;;;;11.17;67.10;99559.57;105120;1262;60463;-54
2023/04/12 02:29:17;;;;;;;12.40;9.70;;;;;;;11.12;67.17;99556.71;105357;1261;65191;-52
2023/04/12 02:31:51;;;;;;;16.70;10.10;;;;;;;11.05;67.39;99558.60;105225;1262;61779;-51
2023/04/12 02:34:20;;;;;;;11.60;8.90;;;;;;;11.02;67.69;99551.88;105250;1261;64816;-52
2023/04/12 02:36:55;;;;;;;12.50;9.00;;;;;;;11.05;67.69;99551.02;105061;1259;60534;-52
2023/04/12 02:39:23;;;;;;;12.70;9.00;;;;;;;11.10;67.71;99545.33;105154;1259;60480;-50
2023/04/12 02:41:52;;;;;;;12.80;8.80;;;;;;;11.09;67.78;99547.14;105158;1260;65160;-52
2023/04/12 02:44:20;;;;;;;14.50;9.90;;;;;;;11.08;68.02;99546.88;105057;1259;62865;-52
2023/04/12 02:47:13;;;;;;;14.80;8.80;;;;;;;11.07;67.99;99540.70;105143;1259;65195;-52
2023/04/12 02:49:45;;;;;;;13.20;8.70;;;;;;;11.00;68.07;99537.84;105062;1259;60417;-52
2023/04/12 02:52:14;;;;;;;11.80;8.70;;;;;;;10.98;68.17;99535.91;105417;1261;60474;-51
2023/04/12 02:54:57;;;;;;;12.00;8.00;;;;;;;11.00;68.19;99530.45;105489;1259;65291;-50
2023/04/12 02:57:25;;;;;;;13.60;9.20;;;;;;;10.99;68.37;99527.42;105032;1263;61819;-51
2023/04/12 02:59:54;;;;;;;14.00;8.60;;;;;;;10.99;68.61;99528.33;105581;1258;64827;-51
2023/04/12 03:02:25;;;;;;;13.60;8.40;;;;;;;11.01;68.71;99525.98;105042;1262;60581;-50
2023/04/12 03:04:58;;;;;;;11.00;8.10;;;;;;;11.00;68.66;99525.35;104954;1258;61209;-50
2023/04/12 03:07:36;;;;;;;10.90;7.50;;;;;;;11.04;68.52;99525.66;105056;1262;65974;-50
2023/04/12 03:10:06;;;;;;;12.30;8.00;;;;;;;11.10;68.50;99523.55;104958;1259;62308;-51
2023/04/12 03:12:38;;;;;;;12.80;7.70;;;;;;;11.12;68.52;99522.51;105202;1262;65043;-50
2023/04/12 03:15:22;;;;;;;12.50;8.40;;;;;;;11.12;68.61;99521.77;104953;1259;60457;-51
2023/04/12 03:17:52;;;;;;;10.90;8.10;;;;;;;11.10;68.56;99517.71;105278;1263;60349;-51
2023/04/12 03:20:24;;;;;;;8.90;6.60;;;;;;;11.08;68.56;99515.63;105131;1262;68288;-52
2023/04/12 03:23:00;;;;;;;9.80;7.00;;;;;;;11.11;68.55;99514.34;105280;1259;71463;-52
2023/04/12 03:25:29;;;;;;;10.50;7.30;;;;;;;11.16;68.55;99511.07;105322;1259;64627;-51
2023/04/12 03:28:01;;;;;;;13.40;8.00;;;;;;;11.18;68.47;99514.58;105172;1259;61026;-51
2023/04/12 03:30:43;;;;;;;12.80;8.80;;;;;;;11.17;68.60;99513.71;106878;1259;59660;-51
2023/04/12 03:33:12;;;;;;;11.60;8.20;;;;;;;11.14;68.59;99506.80;105141;1259;65898;-51
2023/04/12 03:35:41;;;;;;;10.40;7.10;;;;;;;11.11;68.57;99504.30;105300;1260;62646;-51
2023/04/12 03:38:10;;;;;;;11.10;7.10;;;;;;;11.11;68.50;99504.96;105111;1259;65003;-52
2023/04/12 03:40:38;;;;;;;12.90;7.80;;;;;;;11.13;68.55;99500.18;104939;1259;60504;-51
2023/04/12 03:43:07;;;;;;;12.50;7.60;;;;;;;11.12;68.69;99499.11;105480;1259;60495;-51
2023/04/12 03:45:35;;;;;;;10.60;7.30;;;;;;;11.10;68.84;99497.41;105418;1259;66236;-50
2023/04/12 03:48:04;;;;;;;9.90;6.70;;;;;;;11.07;68.99;99495.88;105138;1261;62642;-51
2023/04/12 03:50:47;;;;;;;11.30;7.30;;;;;;;11.10;68.92;99499.33;105198;1264;64863;-50
2023/04/12 03:53:22;;;;;;;11.80;7.90;;;;;;;11.14;68.87;99499.81;105647;1259;60394;-50
2023/04/12 03:55:51;;;;;;;11.40;7.10;;;;;;;11.15;69.04;99501.45;105080;1259;60703;-51
2023/04/12 03:58:21;;;;;;;9.90;6.70;;;;;;;11.12;69.11;99501.20;104952;1259;65147;-50
2023/04/12 04:00:50;;;;;;;9.40;5.90;;;;;;;11.08;69.23;99501.46;104990;1257;62331;-51
2023/04/12 04:03:19;;;;;;;11.10;6.80;;;;;;;11.10;69.24;99500.92;105396;1260;65341;-50
2023/04/12 04:06:05;;;;;;;8.20;5.70;;;;;;;11.15;69.23;99498.48;104793;1263;60406;-51
2023/04/12 04:08:33;;;;;;;11.40;6.80;;;;;;;11.19;69.31;99492.64;105411;1260;61826;-51
2023/04/12 04:11:01;;;;;;;10.70;7.20;;;;;;;11.20;69.32;99497.63;105288;1262;65730;-52
2023/04/12 04:13:35;;;;;;;11.30;6.80;;;;;;;11.19;69.37;99495.80;105407;1260;62426;-51
2023/04/12 04:16:09;;;;;;;10.40;5.70;;;;;;;11.16;69.45;99498.19;105053;1259;64695;-51
2023/04/12 04:18:38;;;;;;;11.10;5.50;;;;;;;11.13;69.39;99496.36;105054;1262;61651;-50
2023/04/12 04:21:08;;;;;;;11.30;6.10;;;;;;;11.14;69.36;99498.71;105579;1259;60845;-51
2023/04/12 04:23:43;;;;;;;9.70;5.70;;;;;;;11.15;69.49;99495.30;105578;1258;66125;-51
2023/04/12 04:26:19;;;;;;;9.20;6.00;;;;;;;11.16;69.62;99497.54;104589;1259;62881;-51
2023/04/12 04:29:00;;;;;;;8.60;6.20;;;;;;;11.13;69.72;99495.73;104547;1259;63798;-53
2023/04/12 04:31:35;;;;;;;12.10;6.50;;;;;;;11.06;69.69;99495.80;105147;1259;60541;-50
2023/04/12 04:34:05;;;;;;;10.60;6.40;;;;;;;11.08;69.82;99493.77;105642;1258;59184;-52
2023/04/12 04:36:37;;;;;;;11.30;6.00;;;;;;;11.16;69.69;99495.55;105344;1259;66093;-51
2023/04/12 04:39:14;;;;;;;9.20;5.70;;;;;;;11.28;69.65;99495.07;105465;1254;61647;-50
2023/04/12 04:41:45;;;;;;;10.30;5.70;;;;;;;11.28;69.73;99498.09;105849;1255;65026;-50
2023/04/12 04:44:24;;;;;;;9.90;5.80;;;;;;;11.22;69.90;99498.37;105425;1260;61960;-51
2023/04/12 04:46:58;;;;;;;8.40;5.70;;;;;;;11.19;69.85;99500.96;106094;1254;60485;-50
2023/04/12 04:49:32;;;;;;;9.50;5.60;;;;;;;11.22;69.80;99498.16;105480;1254;66162;-50
2023/04/12 04:52:07;;;;;;;8.00;5.30;;;;;;;11.26;69.74;99495.02;108942;1254;61565;-52
2023/04/12 04:54:36;;;;;;;8.30;5.30;;;;;;;11.25;69.76;99489.27;108891;1254;65064;-52
2023/04/12 04:57:11;;;;;;;7.40;5.30;;;;;;;11.22;69.80;99490.08;108997;1254;59826;-52
2023/04/12 04:59:40;;;;;;;10.40;5.00;;;;;;;11.21;69.95;99489.54;108979;1254;58254;-52
2023/04/12 05:02:15;;;;;;;7.20;4.70;;;;;;;11.25;69.82;99493.00;108992;1254;66265;-52
2023/04/12 05:04:48;;;;;;;8.00;5.00;;;;;;;11.30;69.80;99491.05;106468;1254;62817;-53
2023/04/12 05:07:19;;;;;;;11.50;5.60;;;;;;;11.32;69.87;99491.91;105680;1259;64007;-52
2023/04/12 05:09:48;;;;;;;9.90;5.70;;;;;;;11.31;69.99;99490.36;105858;1254;60436;-50
2023/04/12 05:12:20;;;;;;;8.50;5.00;;;;;;;11.32;70.05;99485.42;105238;1256;60526;-52
2023/04/12 05:14:56;;;;;;;7.50;4.90;;;;;;;11.35;69.94;99488.84;105274;1258;65285;-52
2023/04/12 05:17:38;;;;;;;8.40;5.30;;;;;;;11.37;69.87;99488.01;105288;1254;62350;-52
2023/04/12 05:20:11;;;;;;;8.50;5.20;;;;;;;11.33;70.06;99487.92;105368;1256;64061;-50
2023/04/12 05:22:39;;;;;;;8.80;5.30;;;;;;;11.29;70.24;99481.16;105223;1255;60553;-50
2023/04/12 05:25:08;;;;;;;8.50;5.10;;;;;;;11.26;70.34;99480.57;105839;1254;60480;-50
2023/04/12 05:27:41;;;;;;;8.90;4.80;;;;;;;11.27;70.25;99477.98;105533;1260;64924;-50
2023/04/12 05:30:11;;;;;;;7.20;5.00;;;;;;;11.30;70.29;99479.28;105705;1254;62381;-50
2023/04/12 05:32:40;;;;;;;9.50;5.10;;;;;;;11.31;70.42;99475.02;105836;1255;64698;-51
2023/04/12 05:35:09;;;;;;;7.00;4.70;;;;;;;11.29;70.56;99475.39;105267;1254;60525;-51
2023/04/12 05:37:39;;;;;;;7.80;4.90;;;;;;;11.28;70.61;99474.42;105328;1256;60554;-50
2023/04/12 05:40:08;;;;;;;8.60;4.50;;;;;;;11.31;70.58;99471.80;105312;1258;66446;-50
2023/04/12 05:42:38;;;;;;;9.40;5.20;;;;;;;11.37;70.48;99470.70;105322;1254;62435;-52
2023/04/12 05:45:06;;;;;;;8.30;5.00;;;;;;;11.38;70.55;99469.04;105553;1254;64770;-50
2023/04/12 05:47:35;;;;;;;8.70;5.70;;;;;;;11.38;70.68;99466.45;105568;1254;60547;-51
2023/04/12 05:50:05;;;;;;;7.00;4.90;;;;;;;11.35;70.60;99466.52;104974;1254;60560;-51
2023/04/12 05:52:42;;;;;;;7.40;4.60;;;;;;;11.37;70.55;99466.38;104961;1257;66423;-50
2023/04/12 05:55:11;;;;;;;8.10;4.50;;;;;;;11.41;70.56;99464.21;105166;1258;62756;-51
2023/04/12 05:57:43;;;;;;;8.80;5.00;;;;;;;11.46;70.54;99462.05;105091;1254;64844;-51
2023/04/12 06:00:16;;;;;;;8.50;4.70;;;;;;;11.54;70.57;99461.30;105587;1254;60401;-52
2023/04/12 06:02:46;;;;;;;8.60;4.90;;;;;;;11.57;70.38;99461.33;105654;1254;60480;-52
2023/04/12 06:05:16;;;;;;;7.00;4.30;;;;;;;11.54;70.38;99459.56;105546;1256;65986;-50
2023/04/12 06:07:48;;;;;;;7.10;6.00;;;;;;;11.56;70.34;99461.15;105547;1256;61677;-53
2023/04/12 06:10:16;;;;;;;9.10;4.80;;;;;;;11.60;70.24;99457.73;105807;1257;64809;-52
2023/04/12 06:12:49;;;;;;;7.90;4.80;;;;;;;11.61;70.39;99458.56;105408;1257;60567;-53
2023/04/12 06:15:20;;;;;;;8.60;4.90;;;;;;;11.61;70.50;99453.75;105418;1256;60398;-50
2023/04/12 06:17:55;;;;;;;9.40;4.50;;;;;;;11.61;70.30;99449.59;105273;1258;66089;-51
2023/04/12 06:20:24;;;;;;;7.10;3.90;;;;;;;11.63;70.08;99451.66;105736;1254;62711;-50
2023/04/12 06:22:53;;;;;;;7.70;4.00;;;;;;;11.67;70.03;99454.95;105452;1258;64075;-51
2023/04/12 06:25:21;;;;;;;6.70;3.90;;;;;;;11.69;70.05;99450.17;105241;1256;63841;-51
2023/04/12 06:27:52;;;;;;;7.20;4.40;;;;;;;11.71;70.21;99449.63;105231;1256;62341;-52
2023/04/12 06:30:23;;;;;;;7.20;4.50;;;;;;;11.74;70.33;99448.48;105436;1256;66066;-51
2023/04/12 06:32:53;;;;;;;8.20;4.60;;;;;;;11.77;70.27;99446.25;105328;1255;62757;-52
2023/04/12 06:35:23;;;;;;;6.50;4.10;;;;;;;11.76;70.14;99447.98;105532;1254;64191;-50
2023/04/12 06:37:52;;;;;;;8.60;4.30;;;;;;;11.77;69.98;99447.84;105519;1254;60887;-51
2023/04/12 06:40:22;;;;;;;7.80;4.10;;;;;;;11.83;69.94;99446.47;105568;1258;60376;-51
2023/04/12 06:42:51;;;;;;;9.70;4.50;;;;;;;11.92;69.80;99444.91;105368;1258;66772;-51
2023/04/12 06:45:22;;;;;;;7.60;4.60;;;;;;;11.96;69.86;99445.38;105704;1254;62333;-50
2023/04/12 06:47:54;;;;;;;7.10;4.40;;;;;;;11.97;69.71;99442.33;105496;1261;63923;-51
2023/04/12 06:50:25;;;;;;;7.80;4.70;;;;;;;11.95;69.49;99442.55;105234;1254;60471;-51
2023/04/12 06:52:53;;;;;;;7.40;4.00;;;;;;;11.92;69.61;99443.34;105429;1256;60486;-51
2023/04/12 06:55:23;;;;;;;7.30;4.40;;;;;;;11.95;69.51;99441.83;105279;1258;65713;-51
2023/04/12 06:57:51;;;;;;;6.00;3.60;;;;;;;12.00;69.49;99440.98;105226;1258;61488;-51
2023/04/12 07:00:24;;;;;;;6.80;4.20;;;;;;;12.03;69.48;99440.86;106309;1256;65103;-51
2023/04/12 07:02:53;;;;;;;7.40;4.30;;;;;;;12.04;69.50;99439.30;105430;1255;60439;-52
2023/04/12 07:05:22;;;;;;;6.40;3.70;;;;;;;12.05;69.44;99432.19;105365;1257;60452;-52
2023/04/12 07:07:51;;;;;;;8.10;4.20;;;;;;;12.04;69.41;99434.24;105458;1258;66188;-52
2023/04/12 07:10:19;;;;;;;7.60;3.90;;;;;;;12.02;69.43;99435.98;105711;1256;62636;-50
2023/04/12 07:12:48;;;;;;;8.30;4.00;;;;;;;12.06;69.45;99432.77;105423;1256;64854;-51
2023/04/12 07:15:17;;;;;;;7.50;4.00;;;;;;;12.12;69.29;99431.11;105467;1256;60464;-50
2023/04/12 07:17:46;;;;;;;7.30;3.90;;;;;;;12.15;69.24;99431.41;105210;1258;60476;-51
2023/04/12 07:20:14;;;;;;;6.60;3.90;;;;;;;12.14;69.45;99428.00;107130;1254;66313;-51
2023/04/12 07:22:43;;;;;;;7.30;4.10;;;;;;;12.13;69.43;99429.98;105294;1256;62265;-50
2023/04/12 07:25:11;;;;;;;7.90;4.00;;;;;;;12.12;69.44;99426.75;105244;1254;67212;-51
2023/04/12 07:27:40;;;;;;;6.00;3.40;;;;;;;12.16;69.43;99425.65;105646;1256;60455;-50
2023/04/12 07:30:10;;;;;;;6.90;3.60;;;;;;;12.21;69.29;99424.29;105578;1256;60530;-51
2023/04/12 07:32:38;;;;;;;5.70;3.50;;;;;;;12.23;69.28;99422.80;105489;1258;66170;-51
2023/04/12 07:35:07;;;;;;;7.10;3.60;;;;;;;12.26;69.35;99424.61;105505;1258;62505;-51
2023/04/12 07:37:36;;;;;;;6.90;3.60;;;;;;;12.25;69.31;99422.75;105638;1256;65119;-51
2023/04/12 07:40:05;;;;;;;6.50;3.90;;;;;;;12.26;69.38;99423.23;107272;1254;62627;-52
2023/04/12 07:42:35;;;;;;;7.40;3.90;;;;;;;12.26;69.35;99420.80;105389;1258;60363;-51
2023/04/12 07:45:04;;;;;;;5.40;3.50;;;;;;;12.29;69.22;99422.91;105317;1258;65863;-51
2023/04/12 07:47:36;;;;;;;5.50;3.10;;;;;;;12.34;69.18;99424.56;105596;1254;62574;-51
2023/04/12 07:50:05;;;;;;;6.80;3.80;;;;;;;12.37;69.26;99423.09;105622;1256;65009;-51
2023/04/12 07:52:34;;;;;;;6.00;3.50;;;;;;;12.43;69.29;99424.43;105585;1258;60575;-51
2023/04/12 07:55:06;;;;;;;6.30;3.60;;;;;;;12.46;69.07;99423.45;105211;1256;60473;-51
2023/04/12 07:57:35;;;;;;;7.00;3.40;;;;;;;12.46;69.11;99422.92;105301;1259;65257;-51
2023/04/12 08:00:04;;;;;;;6.90;3.10;;;;;;;12.48;69.22;99419.60;105272;1258;61539;-51
2023/04/12 08:02:40;;;;;;;5.10;2.90;;;;;;;12.53;69.12;99417.98;106603;1256;66624;-52
2023/04/12 08:05:09;;;;;;;5.80;3.30;;;;;;;12.61;69.15;99416.49;106219;1258;60403;-51
2023/04/12 08:07:45;;;;;;;6.60;3.30;;;;;;;12.66;69.09;99415.80;105242;1254;60767;-51
2023/04/12 08:10:14;;;;;;;5.00;3.00;;;;;;;12.68;69.04;99414.63;105541;1258;66519;-51
2023/04/12 08:12:43;;;;;;;6.60;3.60;;;;;;;12.68;68.98;99412.46;105267;1256;62415;-52
2023/04/12 08:15:12;;;;;;;6.10;3.00;;;;;;;12.64;68.89;99412.05;105795;1258;64573;-52
2023/04/12 08:17:42;;;;;;;5.50;3.10;;;;;;;12.61;68.86;99410.95;105224;1255;60512;-52
2023/04/12 08:20:12;;;;;;;5.80;2.90;;;;;;;12.63;68.87;99410.79;105423;1255;60513;-51
2023/04/12 08:22:41;;;;;;;7.20;3.50;;;;;;;12.69;68.71;99412.81;105146;1258;66257;-52
2023/04/12 08:25:10;;;;;;;5.70;3.30;;;;;;;12.72;68.58;99407.75;105196;1258;62773;-52
2023/04/12 08:27:41;;;;;;;6.90;3.30;;;;;;;12.74;68.74;99410.36;105165;1258;64100;-51
2023/04/12 08:30:10;;;;;;;6.40;3.70;;;;;;;12.74;68.69;99407.55;105188;1256;62792;-52
2023/04/12 08:32:39;;;;;;;7.80;3.30;;;;;;;12.73;68.62;99408.19;105622;1256;60457;-51
2023/04/12 08:35:08;;;;;;;6.80;3.20;;;;;;;12.72;68.69;99404.19;105429;1258;66114;-52
2023/04/12 08:37:38;;;;;;;5.20;2.90;;;;;;;12.75;68.60;99406.89;105481;1256;62589;-51
2023/04/12 08:40:08;;;;;;;5.30;2.70;;;;;;;12.79;68.66;99403.32;105949;1258;64012;-51
2023/04/12 08:42:37;;;;;;;6.30;3.50;;;;;;;12.87;68.68;99401.66;105499;1256;60543;-52
2023/04/12 08:45:06;;;;;;;6.30;3.30;;;;;;;12.91;68.47;99399.80;105601;1258;61145;-52
2023/04/12 08:47:41;;;;;;;6.10;3.80;;;;;;;12.91;68.46;99394.63;106049;1256;65052;-52
2023/04/12 08:50:12;;;;;;;5.80;3.20;;;;;;;12.93;68.44;99391.42;105092;1256;62454;-50
2023/04/12 08:52:42;;;;;;;6.50;3.10;;;;;;;12.94;68.49;99390.83;105957;1258;63824;-53
2023/04/12 08:55:11;;;;;;;4.90;2.60;;;;;;;12.96;68.29;99388.98;105116;1256;60546;-53
2023/04/12 08:57:40;;;;;;;5.60;3.10;;;;;;;12.99;68.24;99389.04;105209;1258;60417;-52
2023/04/12 09:00:10;;;;;;;5.10;2.70;;;;;;;13.03;68.18;99387.23;105619;1256;65967;-51
2023/04/12 09:02:45;;;;;;;6.20;3.10;;;;;;;13.02;68.26;99386.85;105112;1255;62460;-51
2023/04/12 09:05:14;;;;;;;8.20;3.30;;;;;;;13.02;68.37;99383.29;105279;1258;64128;-51
2023/04/12 09:07:43;;;;;;;6.70;3.50;;;;;;;13.04;68.36;99383.85;106003;1256;60538;-51
2023/04/12 09:10:11;;;;;;;5.30;2.60;;;;;;;13.08;68.23;99381.58;105249;1258;60550;-51
2023/04/12 09:12:46;;;;;;;5.90;2.80;;;;;;;13.14;68.12;99382.34;105077;1261;66687;-53
2023/04/12 09:15:16;;;;;;;5.30;2.90;;;;;;;13.18;67.97;99380.14;105907;1254;62741;-51
2023/04/12 09:17:48;;;;;;;4.80;2.40;;;;;;;13.20;68.07;99377.32;105180;1256;65119;-52
2023/04/12 09:20:16;;;;;;;5.20;2.70;;;;;;;13.23;67.90;99374.95;105788;1256;60446;-52
2023/04/12 09:22:46;;;;;;;5.20;2.70;;;;;;;13.23;67.88;99370.89;105289;1257;60498;-52
2023/04/12 09:25:14;;;;;;;5.70;2.60;;;;;;;13.24;68.01;99371.86;105510;1256;66120;-52
2023/04/12 09:27:51;;;;;;;4.80;2.30;;;;;;;13.27;68.03;99371.16;105295;1256;62731;-51
2023/04/12 09:30:19;;;;;;;5.00;2.70;;;;;;;13.33;67.98;99369.84;105450;1258;65119;-52
2023/04/12 09:33:12;;;;;;;5.00;2.50;;;;;;;13.40;67.90;99370.20;105506;1254;60783;-52
2023/04/12 09:35:41;;;;;;;5.40;2.40;;;;;;;13.42;67.84;99370.95;105379;1254;348010;-51
2023/04/12 09:39:33;;;;;;;4.30;2.40;;;;;;;13.22;68.53;99367.04;102503;1288;600803;-53
2023/04/12 09:42:09;;;;;;;5.40;2.80;;;;;;;13.34;68.13;99365.77;105349;1258;59363;-52
2023/04/12 09:44:58;;;;;;;5.90;2.70;;;;;;;13.36;68.14;99366.15;105383;1257;59394;-52
2023/04/12 09:47:40;;;;;;;4.30;2.20;;;;;;;13.41;68.01;99366.73;105651;1253;63567;-53
2023/04/12 09:50:09;;;;;;;5.00;2.30;;;;;;;13.46;67.96;99365.46;106151;1253;62922;-51
2023/04/12 09:52:41;;;;;;;4.90;2.50;;;;;;;13.49;67.88;99365.40;105331;1253;193272;-50
2023/04/12 09:55:10;;;;;;;5.40;2.70;;;;;;;13.50;67.94;99363.39;106212;1255;59251;-51
2023/04/12 09:57:40;;;;;;;6.10;2.80;;;;;;;13.48;68.07;99360.61;105927;1253;59348;-52
2023/04/12 10:00:17;;;;;;;5.00;2.70;;;;;;;13.49;68.05;99362.66;105819;1256;63611;-51
2023/04/12 10:02:50;;;;;;;4.10;2.50;;;;;;;13.49;68.08;99360.02;105471;1253;63008;-52
2023/04/12 10:05:22;;;;;;;5.60;2.70;;;;;;;13.53;67.91;99359.55;105702;1251;64700;-53
2023/04/12 10:07:51;;;;;;;6.70;2.30;;;;;;;13.60;67.79;99363.77;105400;1253;59662;-52
2023/04/12 10:10:21;;;;;;;5.40;2.90;;;;;;;13.60;67.79;99362.84;105957;1256;59691;-52
2023/04/12 10:12:49;;;;;;;8.60;2.90;;;;;;;13.60;67.63;99360.77;105895;1251;64262;-52
2023/04/12 10:15:26;;;;;;;5.20;2.80;;;;;;;13.57;67.53;99361.59;105459;1251;62327;-52
2023/04/12 10:17:57;;;;;;;5.50;2.70;;;;;;;13.51;67.50;99360.23;105137;1253;65090;-53
2023/04/12 10:20:26;;;;;;;4.70;2.40;;;;;;;13.49;67.39;99357.34;105787;1252;59628;-52
2023/04/12 10:23:00;;;;;;;6.30;2.90;;;;;;;13.50;67.39;99362.89;105383;1251;59754;-53
2023/04/12 10:25:30;;;;;;;5.00;2.30;;;;;;;13.52;67.58;99357.70;105568;1253;65710;-53
2023/04/12 10:28:20;;;;;;;5.70;2.90;;;;;;;13.55;67.67;99360.05;105924;1253;62363;-53
2023/04/12 10:30:56;;;;;;;5.40;3.00;;;;;;;13.57;67.69;99361.27;105867;1251;64563;-53
2023/04/12 10:33:31;;;;;;;7.60;3.00;;;;;;;13.57;67.49;99361.09;105615;1251;59652;-53
2023/04/12 10:36:09;;;;;;;5.60;2.40;;;;;;;13.54;67.45;99360.67;105399;1255;62482;-52
2023/04/12 10:39:08;;;;;;;6.50;2.40;;;;;;;13.58;67.44;99360.28;105531;1257;65592;-52
2023/04/12 10:41:36;;;;;;;6.20;3.00;;;;;;;13.66;67.26;99363.44;105624;1257;63323;-52
2023/04/12 10:44:26;;;;;;;5.20;3.10;;;;;;;13.68;67.15;99363.23;105598;1256;65616;-53
2023/04/12 10:46:54;;;;;;;5.80;3.10;;;;;;;13.62;67.49;99364.96;105454;1253;59526;-53
2023/04/12 10:49:23;;;;;;;7.00;2.80;;;;;;;13.55;67.66;99362.45;105845;1252;59445;-52
2023/04/12 10:52:00;;;;;;;4.30;2.50;;;;;;;13.51;67.73;99363.08;107902;1255;65400;-54
2023/04/12 10:54:30;;;;;;;6.20;2.90;;;;;;;13.53;67.68;99360.08;105545;1253;62673;-53
2023/04/12 10:56:58;;;;;;;6.90;2.60;;;;;;;13.56;67.59;99364.66;105825;1255;65047;-52
2023/04/12 10:59:55;;;;;;;6.20;2.70;;;;;;;13.57;67.49;99362.45;105297;1253;59607;-52
2023/04/12 11:02:24;;;;;;;4.70;2.50;;;;;;;13.57;67.55;99361.79;109198;1251;57664;-52
2023/04/12 11:05:09;;;;;;;5.80;3.10;;;;;;;13.57;67.67;99360.00;109113;1251;65225;-53
2023/04/12 11:08:04;;;;;;;5.60;2.90;;;;;;;13.60;67.73;99360.89;105934;1255;64391;-52
2023/04/12 11:10:58;;;;;;;5.90;2.70;;;;;;;13.65;67.58;99358.11;109217;1251;65013;-52
2023/04/12 11:13:35;;;;;;;6.80;2.80;;;;;;;13.72;67.57;99356.44;109025;1251;57689;-53
2023/04/12 11:16:07;;;;;;;5.60;2.80;;;;;;;13.79;67.35;99354.61;109199;1251;57578;-52
2023/04/12 11:18:37;;;;;;;4.50;2.40;;;;;;;13.84;67.26;99356.02;107003;1256;65613;-53
2023/04/12 11:21:06;;;;;;;5.70;2.80;;;;;;;13.87;67.27;99351.65;109182;1252;63055;-53
2023/04/12 11:23:44;;;;;;;6.40;3.10;;;;;;;13.88;67.20;99351.92;109225;1251;65581;-53
2023/04/12 11:26:19;;;;;;;5.90;3.00;;;;;;;13.86;67.14;99353.48;105880;1251;59694;-51
2023/04/12 11:28:49;;;;;;;4.70;2.40;;;;;;;13.88;67.08;99353.20;106276;1253;59621;-52
2023/04/12 11:31:19;;;;;;;4.90;2.30;;;;;;;13.95;67.14;99350.04;107321;1253;66257;-51
2023/04/12 11:33:47;;;;;;;6.50;2.60;;;;;;;14.01;67.06;99348.54;106838;1253;63105;-51
2023/04/12 11:36:15;;;;;;;7.10;2.70;;;;;;;14.02;67.03;99350.52;105858;1256;64947;-51
2023/04/12 11:38:45;;;;;;;6.60;2.90;;;;;;;14.02;67.22;99346.68;105610;1256;59756;-51
2023/04/12 11:41:15;;;;;;;8.20;2.70;;;;;;;14.02;67.35;99343.12;105391;1251;59701;-52
2023/04/12 11:43:45;;;;;;;4.80;2.80;;;;;;;14.02;67.25;99340.04;105471;1253;65612;-53
2023/04/12 11:46:15;;;;;;;4.60;2.00;;;;;;;14.07;67.12;99340.61;105295;1257;62620;-53